sensor_id;sensor_type;location;lat;lon;timestamp;pressure;altitude;pressure_sealevel;temperature
73662;BMP280;61956;52.540;13.382;2023-04-03T00:01:45;49932.72;;;1.78
73662;BMP280;61956;52.540;13.382;2023-04-03T00:04:14;49273.56;;;1.73
73662;BMP280;61956;52.540;13.382;2023-04-03T00:06:45;50486.19;;;1.79
73662;BMP280;61956;52.540;13.382;2023-04-03T00:09:15;50364.47;;;1.78
73662;BMP280;61956;52.540;13.382;2023-04-03T00:11:45;50707.31;;;1.79
73662;BMP280;61956;52.540;13.382;2023-04-03T00:14:14;50170.97;;;1.74
73662;BMP280;61956;52.540;13.382;2023-04-03T00:16:43;50455.59;;;1.75
73662;BMP280;61956;52.540;13.382;2023-04-03T00:19:12;50518.78;;;1.76
73662;BMP280;61956;52.540;13.382;2023-04-03T00:21:42;49998.69;;;1.72
73662;BMP280;61956;52.540;13.382;2023-04-03T00:24:13;49740.31;;;1.69
73662;BMP280;61956;52.540;13.382;2023-04-03T00:26:42;49527.56;;;1.66
73662;BMP280;61956;52.540;13.382;2023-04-03T00:29:13;48723.78;;;1.59
73662;BMP280;61956;52.540;13.382;2023-04-03T00:31:42;48746.72;;;1.59
73662;BMP280;61956;52.540;13.382;2023-04-03T00:34:11;48602.94;;;1.58
73662;BMP280;61956;52.540;13.382;2023-04-03T00:36:40;48697.25;;;1.57
73662;BMP280;61956;52.540;13.382;2023-04-03T00:39:12;48275.66;;;1.53
73662;BMP280;61956;52.540;13.382;2023-04-03T00:41:42;49263.88;;;1.59
73662;BMP280;61956;52.540;13.382;2023-04-03T00:44:22;48874.78;;;1.56
73662;BMP280;61956;52.540;13.382;2023-04-03T00:47:27;48999.94;;;1.55
73662;BMP280;61956;52.540;13.382;2023-04-03T00:49:57;48344.16;;;1.50
73662;BMP280;61956;52.540;13.382;2023-04-03T00:52:29;47974.66;;;1.46
73662;BMP280;61956;52.540;13.382;2023-04-03T00:55:05;47944.22;;;1.45
73662;BMP280;61956;52.540;13.382;2023-04-03T00:57:37;47558.31;;;1.42
73662;BMP280;61956;52.540;13.382;2023-04-03T01:00:10;48227.75;;;1.45
73662;BMP280;61956;52.540;13.382;2023-04-03T01:02:41;48197.28;;;1.45
73662;BMP280;61956;52.540;13.382;2023-04-03T01:05:13;48034.94;;;1.42
73662;BMP280;61956;52.540;13.382;2023-04-03T01:07:45;47445.88;;;1.39
73662;BMP280;61956;52.540;13.382;2023-04-03T01:10:18;48366.16;;;1.42
73662;BMP280;61956;52.540;13.382;2023-04-03T01:12:50;47292.31;;;1.35
73662;BMP280;61956;52.540;13.382;2023-04-03T01:15:22;48045.41;;;1.39
73662;BMP280;61956;52.540;13.382;2023-04-03T01:17:57;47092.16;;;1.32
73662;BMP280;61956;52.540;13.382;2023-04-03T01:24:04;47426.38;;;1.33
73662;BMP280;61956;52.540;13.382;2023-04-03T01:26:48;47620.97;;;1.31
73662;BMP280;61956;52.540;13.382;2023-04-03T01:29:17;47667.16;;;1.33
73662;BMP280;61956;52.540;13.382;2023-04-03T01:31:53;47250.59;;;1.28
73662;BMP280;61956;52.540;13.382;2023-04-03T01:34:24;46406.97;;;1.23
73662;BMP280;61956;52.540;13.382;2023-04-03T01:36:54;46363.38;;;1.21
73662;BMP280;61956;52.540;13.382;2023-04-03T01:39:23;45957.19;;;1.17
73662;BMP280;61956;52.540;13.382;2023-04-03T01:41:53;45931.78;;;1.17
73662;BMP280;61956;52.540;13.382;2023-04-03T01:44:33;46421.84;;;1.19
73662;BMP280;61956;52.540;13.382;2023-04-03T01:47:05;45996.28;;;1.16
73662;BMP280;61956;52.540;13.382;2023-04-03T01:49:36;46035.72;;;1.15
73662;BMP280;61956;52.540;13.382;2023-04-03T01:52:06;45943.00;;;1.15
73662;BMP280;61956;52.540;13.382;2023-04-03T01:54:35;44789.75;;;1.05
73662;BMP280;61956;52.540;13.382;2023-04-03T01:57:04;43820.06;;;1.00
73662;BMP280;61956;52.540;13.382;2023-04-03T01:59:35;43434.25;;;0.96
73662;BMP280;61956;52.540;13.382;2023-04-03T02:02:07;43006.97;;;0.93
73662;BMP280;61956;52.540;13.382;2023-04-03T02:04:38;42230.25;;;0.86
73662;BMP280;61956;52.540;13.382;2023-04-03T02:07:07;42618.59;;;0.88
73662;BMP280;61956;52.540;13.382;2023-04-03T02:09:36;42281.59;;;0.84
73662;BMP280;61956;52.540;13.382;2023-04-03T02:12:06;41606.16;;;0.80
73662;BMP280;61956;52.540;13.382;2023-04-03T02:14:35;41718.09;;;0.79
73662;BMP280;61956;52.540;13.382;2023-04-03T02:17:06;41737.50;;;0.78
73662;BMP280;61956;52.540;13.382;2023-04-03T02:19:36;41952.56;;;0.78
73662;BMP280;61956;52.540;13.382;2023-04-03T02:22:05;41886.66;;;0.76
73662;BMP280;61956;52.540;13.382;2023-04-03T02:24:35;41820.75;;;0.75
73662;BMP280;61956;52.540;13.382;2023-04-03T02:27:04;41143.34;;;0.71
73662;BMP280;61956;52.540;13.382;2023-04-03T02:29:34;40811.09;;;0.67
73662;BMP280;61956;52.540;13.382;2023-04-03T02:32:07;39974.19;;;0.62
73662;BMP280;61956;52.540;13.382;2023-04-03T02:34:36;41312.16;;;0.69
73662;BMP280;61956;52.540;13.382;2023-04-03T02:37:06;41258.81;;;0.67
73662;BMP280;61956;52.540;13.382;2023-04-03T02:39:36;40965.19;;;0.65
73662;BMP280;61956;52.540;13.382;2023-04-03T02:42:05;41521.28;;;0.67
73662;BMP280;61956;52.540;13.382;2023-04-03T02:44:35;40891.56;;;0.63
73662;BMP280;61956;52.540;13.382;2023-04-03T02:47:07;40519.69;;;0.59
73662;BMP280;61956;52.540;13.382;2023-04-03T02:49:36;40448.88;;;0.58
73662;BMP280;61956;52.540;13.382;2023-04-03T02:52:05;40270.06;;;0.55
73662;BMP280;61956;52.540;13.382;2023-04-03T02:54:35;40372.78;;;0.56
73662;BMP280;61956;52.540;13.382;2023-04-03T02:57:07;40008.28;;;0.52
73662;BMP280;61956;52.540;13.382;2023-04-03T02:59:37;39499.84;;;0.49
73662;BMP280;61956;52.540;13.382;2023-04-03T03:02:12;39450.72;;;0.46
73662;BMP280;61956;52.540;13.382;2023-04-03T03:04:41;39473.22;;;0.46
73662;BMP280;61956;52.540;13.382;2023-04-03T03:07:10;39455.19;;;0.45
73662;BMP280;61956;52.540;13.382;2023-04-03T03:09:39;39148.88;;;0.42
73662;BMP280;61956;52.540;13.382;2023-04-03T03:12:08;39510.13;;;0.45
73662;BMP280;61956;52.540;13.382;2023-04-03T03:14:37;38917.84;;;0.39
73662;BMP280;61956;52.540;13.382;2023-04-03T03:17:11;38867.09;;;0.38
73662;BMP280;61956;52.540;13.382;2023-04-03T03:19:40;38811.09;;;0.36
73662;BMP280;61956;52.540;13.382;2023-04-03T03:22:09;39575.31;;;0.41
73662;BMP280;61956;52.540;13.382;2023-04-03T03:24:38;38169.72;;;0.31
73662;BMP280;61956;52.540;13.382;2023-04-03T03:27:08;38574.56;;;0.32
73662;BMP280;61956;52.540;13.382;2023-04-03T03:29:37;38453.69;;;0.30
73662;BMP280;61956;52.540;13.382;2023-04-03T03:32:07;38093.28;;;0.28
73662;BMP280;61956;52.540;13.382;2023-04-03T03:34:39;37657.28;;;0.25
73662;BMP280;61956;52.540;13.382;2023-04-03T03:37:08;37535.97;;;0.21
73662;BMP280;61956;52.540;13.382;2023-04-03T03:39:37;37165.78;;;0.19
73662;BMP280;61956;52.540;13.382;2023-04-03T03:42:06;37493.31;;;0.21
73662;BMP280;61956;52.540;13.382;2023-04-03T03:44:35;37184.72;;;0.17
73662;BMP280;61956;52.540;13.382;2023-04-03T03:47:05;38030.75;;;0.23
73662;BMP280;61956;52.540;13.382;2023-04-03T03:49:39;37738.97;;;0.18
73662;BMP280;61956;52.540;13.382;2023-04-03T03:52:09;37250.78;;;0.15
73662;BMP280;61956;52.540;13.382;2023-04-03T03:54:38;37018.06;;;0.13
73662;BMP280;61956;52.540;13.382;2023-04-03T03:57:07;36685.16;;;0.11
73662;BMP280;61956;52.540;13.382;2023-04-03T03:59:37;36957.44;;;0.12
73662;BMP280;61956;52.540;13.382;2023-04-03T04:02:07;37042.22;;;0.12
73662;BMP280;61956;52.540;13.382;2023-04-03T04:04:39;37087.13;;;0.12
73662;BMP280;61956;52.540;13.382;2023-04-03T04:07:09;36456.00;;;0.06
73662;BMP280;61956;52.540;13.382;2023-04-03T04:09:38;36457.75;;;0.05
73662;BMP280;61956;52.540;13.382;2023-04-03T04:12:08;35590.66;;;0.00
73662;BMP280;61956;52.540;13.382;2023-04-03T04:14:38;36397.16;;;0.03
73662;BMP280;61956;52.540;13.382;2023-04-03T04:17:09;36222.16;;;0.02
73662;BMP280;61956;52.540;13.382;2023-04-03T04:19:40;35708.78;;;-0.03
73662;BMP280;61956;52.540;13.382;2023-04-03T04:22:10;36663.41;;;0.02
73662;BMP280;61956;52.540;13.382;2023-04-03T04:24:39;37318.97;;;0.07
73662;BMP280;61956;52.540;13.382;2023-04-03T04:27:08;36782.81;;;0.02
73662;BMP280;61956;52.540;13.382;2023-04-03T04:29:38;36250.09;;;-0.02
73662;BMP280;61956;52.540;13.382;2023-04-03T04:32:07;36632.47;;;0.00
73662;BMP280;61956;52.540;13.382;2023-04-03T04:34:39;36909.44;;;0.01
73662;BMP280;61956;52.540;13.382;2023-04-03T04:37:09;37657.09;;;0.05
73662;BMP280;61956;52.540;13.382;2023-04-03T04:39:39;37497.22;;;0.04
73662;BMP280;61956;52.540;13.382;2023-04-03T04:42:08;37126.13;;;0.00
73662;BMP280;61956;52.540;13.382;2023-04-03T04:44:40;36945.81;;;-0.02
73662;BMP280;61956;52.540;13.382;2023-04-03T04:47:09;37600.41;;;0.01
73662;BMP280;61956;52.540;13.382;2023-04-03T04:49:41;37252.25;;;-0.02
73662;BMP280;61956;52.540;13.382;2023-04-03T04:52:13;38010.22;;;0.03
73662;BMP280;61956;52.540;13.382;2023-04-03T04:54:42;37887.19;;;0.01
73662;BMP280;61956;52.540;13.382;2023-04-03T04:57:12;38635.19;;;0.05
73662;BMP280;61956;52.540;13.382;2023-04-03T04:59:41;38351.41;;;0.02
73662;BMP280;61956;52.540;13.382;2023-04-03T05:02:11;39156.94;;;0.06
73662;BMP280;61956;52.540;13.382;2023-04-03T05:04:45;39598.09;;;0.09
73662;BMP280;61956;52.540;13.382;2023-04-03T05:07:20;39887.63;;;0.09
73662;BMP280;61956;52.540;13.382;2023-04-03T05:09:49;40048.53;;;0.11
73662;BMP280;61956;52.540;13.382;2023-04-03T05:12:18;40295.97;;;0.12
73662;BMP280;61956;52.540;13.382;2023-04-03T05:14:53;40507.91;;;0.11
73662;BMP280;61956;52.540;13.382;2023-04-03T05:17:24;40536.22;;;0.13
73662;BMP280;61956;52.540;13.382;2023-04-03T05:19:59;40633.31;;;0.12
73662;BMP280;61956;52.540;13.382;2023-04-03T05:22:28;41091.75;;;0.15
73662;BMP280;61956;52.540;13.382;2023-04-03T05:25:05;41752.66;;;0.17
73662;BMP280;61956;52.540;13.382;2023-04-03T05:27:35;42574.88;;;0.22
73662;BMP280;61956;52.540;13.382;2023-04-03T05:30:06;42786.03;;;0.24
73662;BMP280;61956;52.540;13.382;2023-04-03T05:32:38;43066.59;;;0.25
73662;BMP280;61956;52.540;13.382;2023-04-03T05:35:19;43480.63;;;0.28
73662;BMP280;61956;52.540;13.382;2023-04-03T05:37:51;43853.81;;;0.29
73662;BMP280;61956;52.540;13.382;2023-04-03T05:40:21;44374.00;;;0.33
73662;BMP280;61956;52.540;13.382;2023-04-03T05:42:53;45149.53;;;0.37
73662;BMP280;61956;52.540;13.382;2023-04-03T05:45:24;45480.81;;;0.38
73662;BMP280;61956;52.540;13.382;2023-04-03T05:47:54;46209.59;;;0.43
73662;BMP280;61956;52.540;13.382;2023-04-03T05:50:26;46694.13;;;0.45
73662;BMP280;61956;52.540;13.382;2023-04-03T05:52:57;47546.47;;;0.50
73662;BMP280;61956;52.540;13.382;2023-04-03T05:55:29;48374.16;;;0.55
73662;BMP280;61956;52.540;13.382;2023-04-03T05:57:58;47938.97;;;0.53
73662;BMP280;61956;52.540;13.382;2023-04-03T06:00:28;48787.59;;;0.59
73662;BMP280;61956;52.540;13.382;2023-04-03T06:03:01;50013.09;;;0.65
73662;BMP280;61956;52.540;13.382;2023-04-03T06:05:33;51388.22;;;0.73
73662;BMP280;61956;52.540;13.382;2023-04-03T06:08:02;52252.03;;;0.77
73662;BMP280;61956;52.540;13.382;2023-04-03T06:10:32;53194.72;;;0.85
73662;BMP280;61956;52.540;13.382;2023-04-03T06:13:02;54259.47;;;0.92
73662;BMP280;61956;52.540;13.382;2023-04-03T06:15:31;55179.44;;;0.98
73662;BMP280;61956;52.540;13.382;2023-04-03T06:18:00;56587.81;;;1.08
73662;BMP280;61956;52.540;13.382;2023-04-03T06:20:32;58066.53;;;1.16
73662;BMP280;61956;52.540;13.382;2023-04-03T06:23:02;59538.97;;;1.27
73662;BMP280;61956;52.540;13.382;2023-04-03T06:25:31;61274.41;;;1.38
73662;BMP280;61956;52.540;13.382;2023-04-03T06:28:00;62303.09;;;1.44
73662;BMP280;61956;52.540;13.382;2023-04-03T06:30:30;63352.91;;;1.52
73662;BMP280;61956;52.540;13.382;2023-04-03T06:32:59;64132.91;;;1.58
73662;BMP280;61956;52.540;13.382;2023-04-03T06:35:28;64721.41;;;1.64
73662;BMP280;61956;52.540;13.382;2023-04-03T06:38:00;65383.34;;;1.69
73662;BMP280;61956;52.540;13.382;2023-04-03T06:40:33;66317.91;;;1.77
73662;BMP280;61956;52.540;13.382;2023-04-03T06:43:02;67503.31;;;1.85
73662;BMP280;61956;52.540;13.382;2023-04-03T06:45:31;68105.16;;;1.90
73662;BMP280;61956;52.540;13.382;2023-04-03T06:48:02;68696.63;;;1.94
73662;BMP280;61956;52.540;13.382;2023-04-03T06:50:31;68526.69;;;1.96
73662;BMP280;61956;52.540;13.382;2023-04-03T06:53:03;70133.97;;;2.07
73662;BMP280;61956;52.540;13.382;2023-04-03T06:55:33;71880.53;;;2.18
73662;BMP280;61956;52.540;13.382;2023-04-03T06:58:03;72235.13;;;2.23
73662;BMP280;61956;52.540;13.382;2023-04-03T07:00:32;73691.66;;;2.33
73662;BMP280;61956;52.540;13.382;2023-04-03T07:03:02;75056.94;;;2.43
73662;BMP280;61956;52.540;13.382;2023-04-03T07:05:31;76002.09;;;2.51
73662;BMP280;61956;52.540;13.382;2023-04-03T07:08:03;76670.41;;;2.58
73662;BMP280;61956;52.540;13.382;2023-04-03T07:10:32;79005.47;;;2.73
73662;BMP280;61956;52.540;13.382;2023-04-03T07:13:02;81736.09;;;2.93
73662;BMP280;61956;52.540;13.382;2023-04-03T07:15:31;86029.94;;;3.24
73662;BMP280;61956;52.540;13.382;2023-04-03T07:18:01;93109.13;;;3.69
73662;BMP280;61956;52.540;13.382;2023-04-03T07:20:31;96784.19;;;4.00
73662;BMP280;61956;52.540;13.382;2023-04-03T07:23:03;98702.25;;;4.20
73662;BMP280;61956;52.540;13.382;2023-04-03T07:25:32;99217.25;;;4.31
73662;BMP280;61956;52.540;13.382;2023-04-03T07:28:02;99851.38;;;4.43
73662;BMP280;61956;52.540;13.382;2023-04-03T07:30:31;96924.53;;;4.32
73662;BMP280;61956;52.540;13.382;2023-04-03T07:33:00;97645.97;;;4.43
73662;BMP280;61956;52.540;13.382;2023-04-03T07:35:29;98198.97;;;4.50
73662;BMP280;61956;52.540;13.382;2023-04-03T07:37:59;94486.13;;;4.35
73662;BMP280;61956;52.540;13.382;2023-04-03T07:40:30;93569.69;;;4.32
73662;BMP280;61956;52.540;13.382;2023-04-03T07:43:00;88995.88;;;4.07
73662;BMP280;61956;52.540;13.382;2023-04-03T07:45:30;92965.25;;;4.32
73662;BMP280;61956;52.540;13.382;2023-04-03T07:47:59;94012.94;;;4.43
73662;BMP280;61956;52.540;13.382;2023-04-03T07:50:28;109629.09;;;5.41
73662;BMP280;61956;52.540;13.382;2023-04-03T07:52:58;114538.09;;;6.01
73662;BMP280;61956;52.540;13.382;2023-04-03T07:55:31;116799.72;;;6.30
73662;BMP280;61956;52.540;13.382;2023-04-03T07:58:06;97662.50;;;5.22
73662;BMP280;61956;52.540;13.382;2023-04-03T08:00:35;88164.84;;;4.64
73662;BMP280;61956;52.540;13.382;2023-04-03T08:03:05;85205.16;;;4.43
73662;BMP280;61956;52.540;13.382;2023-04-03T08:05:36;86343.59;;;4.46
73662;BMP280;61956;52.540;13.382;2023-04-03T08:08:07;91338.16;;;4.75
73662;BMP280;61956;52.540;13.382;2023-04-03T08:10:40;100134.69;;;5.35
73662;BMP280;61956;52.540;13.382;2023-04-03T08:13:10;111571.97;;;6.12
73662;BMP280;61956;52.540;13.382;2023-04-03T08:15:39;105683.81;;;5.85
73662;BMP280;61956;52.540;13.382;2023-04-03T08:18:08;102780.47;;;5.81
73662;BMP280;61956;52.540;13.382;2023-04-03T08:20:38;104315.97;;;5.95
73662;BMP280;61956;52.540;13.382;2023-04-03T08:23:08;92767.47;;;5.27
73662;BMP280;61956;52.540;13.382;2023-04-03T08:25:41;92206.34;;;5.22
73662;BMP280;61956;52.540;13.382;2023-04-03T08:28:11;90874.78;;;5.14
73662;BMP280;61956;52.540;13.382;2023-04-03T08:30:41;92729.78;;;5.24
73662;BMP280;61956;52.540;13.382;2023-04-03T08:33:11;92201.94;;;5.22
73662;BMP280;61956;52.540;13.382;2023-04-03T08:35:41;93624.91;;;5.31
73662;BMP280;61956;52.540;13.382;2023-04-03T08:38:11;92796.41;;;5.27
73662;BMP280;61956;52.540;13.382;2023-04-03T08:40:42;91550.03;;;5.22
73662;BMP280;61956;52.540;13.382;2023-04-03T08:43:31;97065.56;;;5.56
73662;BMP280;61956;52.540;13.382;2023-04-03T08:46:12;97934.25;;;5.66
73662;BMP280;61956;52.540;13.382;2023-04-03T08:48:46;94925.75;;;5.52
73662;BMP280;61956;52.540;13.382;2023-04-03T08:51:19;96767.59;;;5.64
73662;BMP280;61956;52.540;13.382;2023-04-03T08:53:55;97874.59;;;5.74
73662;BMP280;61956;52.540;13.382;2023-04-03T08:56:33;99464.03;;;5.86
73662;BMP280;61956;52.540;13.382;2023-04-03T08:59:05;100135.22;;;5.95
73662;BMP280;61956;52.540;13.382;2023-04-03T09:01:41;104418.81;;;6.26
73662;BMP280;61956;52.540;13.382;2023-04-03T09:04:13;97914.66;;;5.95
73662;BMP280;61956;52.540;13.382;2023-04-03T09:06:48;93345.91;;;5.67
73662;BMP280;61956;52.540;13.382;2023-04-03T09:09:30;92883.94;;;5.64
73662;BMP280;61956;52.540;13.382;2023-04-03T09:12:15;90671.84;;;5.48
73662;BMP280;61956;52.540;13.382;2023-04-03T09:14:57;87172.81;;;5.26
73662;BMP280;61956;52.540;13.382;2023-04-03T09:17:38;90479.53;;;5.43
73662;BMP280;61956;52.540;13.382;2023-04-03T09:20:19;86551.81;;;5.21
73662;BMP280;61956;52.540;13.382;2023-04-03T09:22:55;87591.28;;;5.25
73662;BMP280;61956;52.540;13.382;2023-04-03T09:25:27;85665.50;;;5.12
73662;BMP280;61956;52.540;13.382;2023-04-03T09:28:01;86406.25;;;5.15
73662;BMP280;61956;52.540;13.382;2023-04-03T09:30:36;86298.13;;;5.15
73662;BMP280;61956;52.540;13.382;2023-04-03T09:33:07;88451.78;;;5.27
73662;BMP280;61956;52.540;13.382;2023-04-03T09:35:41;86502.13;;;5.14
73662;BMP280;61956;52.540;13.382;2023-04-03T09:38:18;85549.53;;;5.07
73662;BMP280;61956;52.540;13.382;2023-04-03T09:40:51;85094.91;;;5.06
73662;BMP280;61956;52.540;13.382;2023-04-03T09:43:37;84731.69;;;5.02
73662;BMP280;61956;52.540;13.382;2023-04-03T09:46:24;85317.94;;;5.04
73662;BMP280;61956;52.540;13.382;2023-04-03T09:48:58;86633.03;;;5.11
73662;BMP280;61956;52.540;13.382;2023-04-03T09:51:29;92472.16;;;5.48
73662;BMP280;61956;52.540;13.382;2023-04-03T09:53:59;95806.91;;;5.71
73662;BMP280;61956;52.540;13.382;2023-04-03T09:56:29;98616.38;;;5.93
73662;BMP280;61956;52.540;13.382;2023-04-03T09:59:14;101336.69;;;6.18
73662;BMP280;61956;52.540;13.382;2023-04-03T10:01:57;100229.19;;;6.18
73662;BMP280;61956;52.540;13.382;2023-04-03T10:04:38;100237.28;;;6.21
73662;BMP280;61956;52.540;13.382;2023-04-03T10:07:27;103980.34;;;6.50
73662;BMP280;61956;52.540;13.382;2023-04-03T10:10:01;106924.66;;;6.74
73662;BMP280;61956;52.540;13.382;2023-04-03T10:12:31;106184.81;;;6.78
73662;BMP280;61956;52.540;13.382;2023-04-03T10:15:12;107434.94;;;6.94
73662;BMP280;61956;52.540;13.382;2023-04-03T10:17:52;107605.38;;;7.01
73662;BMP280;61956;52.540;13.382;2023-04-03T10:20:32;108321.47;;;7.12
73662;BMP280;61956;52.540;13.382;2023-04-03T10:23:15;106988.13;;;7.12
73662;BMP280;61956;52.540;13.382;2023-04-03T10:25:58;107010.41;;;7.17
73662;BMP280;61956;52.540;13.382;2023-04-03T10:28:43;107336.78;;;7.26
73662;BMP280;61956;52.540;13.382;2023-04-03T10:31:23;100371.91;;;6.87
73662;BMP280;61956;52.540;13.382;2023-04-03T10:34:01;96184.13;;;6.60
73662;BMP280;61956;52.540;13.382;2023-04-03T10:36:38;99627.03;;;6.80
73662;BMP280;61956;52.540;13.382;2023-04-03T10:39:21;103314.34;;;7.04
73662;BMP280;61956;52.540;13.382;2023-04-03T10:42:03;105386.16;;;7.22
73662;BMP280;61956;52.540;13.382;2023-04-03T10:44:47;102158.72;;;7.06
73662;BMP280;61956;52.540;13.382;2023-04-03T10:47:36;100495.00;;;6.98
73662;BMP280;61956;52.540;13.382;2023-04-03T10:50:24;100298.25;;;6.98
73662;BMP280;61956;52.540;13.382;2023-04-03T10:53:02;102707.53;;;7.16
73662;BMP280;61956;52.540;13.382;2023-04-03T10:55:40;105157.13;;;7.35
73662;BMP280;61956;52.540;13.382;2023-04-03T10:58:19;99409.44;;;7.05
73662;BMP280;61956;52.540;13.382;2023-04-03T11:00:54;101514.97;;;7.17
73662;BMP280;61956;52.540;13.382;2023-04-03T11:03:34;101377.06;;;7.20
73662;BMP280;61956;52.540;13.382;2023-04-03T11:06:08;103163.75;;;7.33
73662;BMP280;61956;52.540;13.382;2023-04-03T11:08:44;99790.69;;;7.13
73662;BMP280;61956;52.540;13.382;2023-04-03T11:11:22;100646.72;;;7.21
73662;BMP280;61956;52.540;13.382;2023-04-03T11:14:00;96585.31;;;6.96
73662;BMP280;61956;52.540;13.382;2023-04-03T11:16:36;98078.97;;;7.03
73662;BMP280;61956;52.540;13.382;2023-04-03T11:19:17;96285.72;;;6.92
73662;BMP280;61956;52.540;13.382;2023-04-03T11:21:53;96262.41;;;6.88
73662;BMP280;61956;52.540;13.382;2023-04-03T11:24:27;95325.66;;;6.83
73662;BMP280;61956;52.540;13.382;2023-04-03T11:27:01;93868.34;;;6.74
73662;BMP280;61956;52.540;13.382;2023-04-03T11:29:36;92661.84;;;6.66
73662;BMP280;61956;52.540;13.382;2023-04-03T11:32:21;94431.28;;;6.75
73662;BMP280;61956;52.540;13.382;2023-04-03T11:35:00;95131.13;;;6.79
73662;BMP280;61956;52.540;13.382;2023-04-03T11:37:34;96432.66;;;6.87
73662;BMP280;61956;52.540;13.382;2023-04-03T11:40:20;95843.75;;;6.84
73662;BMP280;61956;52.540;13.382;2023-04-03T11:42:54;93961.31;;;6.72
73662;BMP280;61956;52.540;13.382;2023-04-03T11:45:37;93338.28;;;6.68
73662;BMP280;61956;52.540;13.382;2023-04-03T11:48:47;96682.41;;;6.87
73662;BMP280;61956;52.540;13.382;2023-04-03T11:54:44;92786.28;;;6.68
73662;BMP280;61956;52.540;13.382;2023-04-03T12:00:53;89181.56;;;6.40
73662;BMP280;61956;52.540;13.382;2023-04-03T12:09:58;88677.44;;;6.28
73662;BMP280;61956;52.540;13.382;2023-04-03T12:12:37;89517.09;;;6.34
73662;BMP280;61956;52.540;13.382;2023-04-03T12:15:19;90151.25;;;6.36
73662;BMP280;61956;52.540;13.382;2023-04-03T12:17:52;87380.31;;;6.18
73662;BMP280;61956;52.540;13.382;2023-04-03T12:23:33;86842.63;;;6.09
73662;BMP280;61956;52.540;13.382;2023-04-03T12:26:18;86570.75;;;6.05
73662;BMP280;61956;52.540;13.382;2023-04-03T12:28:51;86823.91;;;6.07
73662;BMP280;61956;52.540;13.382;2023-04-03T12:31:25;88814.25;;;6.17
73662;BMP280;61956;52.540;13.382;2023-04-03T12:34:18;90774.31;;;6.30
73662;BMP280;61956;52.540;13.382;2023-04-03T12:37:01;91060.25;;;6.32
73662;BMP280;61956;52.540;13.382;2023-04-03T12:39:51;90733.94;;;6.30
73662;BMP280;61956;52.540;13.382;2023-04-03T12:42:35;94280.44;;;6.53
73662;BMP280;61956;52.540;13.382;2023-04-03T12:45:23;97075.34;;;6.74
73662;BMP280;61956;52.540;13.382;2023-04-03T12:47:55;97152.00;;;6.77
73662;BMP280;61956;52.540;13.382;2023-04-03T12:50:28;95497.75;;;6.69
73662;BMP280;61956;52.540;13.382;2023-04-03T12:53:04;94106.03;;;6.62
73662;BMP280;61956;52.540;13.382;2023-04-03T12:55:38;98130.59;;;6.87
73662;BMP280;61956;52.540;13.382;2023-04-03T12:58:15;91852.75;;;6.52
73662;BMP280;61956;52.540;13.382;2023-04-03T13:00:45;91630.53;;;6.47
73662;BMP280;61956;52.540;13.382;2023-04-03T13:03:22;92438.56;;;6.52
73662;BMP280;61956;52.540;13.382;2023-04-03T13:05:54;91876.00;;;6.48
73662;BMP280;61956;52.540;13.382;2023-04-03T13:08:27;89989.53;;;6.36
73662;BMP280;61956;52.540;13.382;2023-04-03T13:11:02;90946.50;;;6.41
73662;BMP280;61956;52.540;13.382;2023-04-03T13:13:36;87612.94;;;6.18
73662;BMP280;61956;52.540;13.382;2023-04-03T13:16:08;87226.72;;;6.13
73662;BMP280;61956;52.540;13.382;2023-04-03T13:18:40;87697.88;;;6.14
73662;BMP280;61956;52.540;13.382;2023-04-03T13:21:14;88420.00;;;6.17
73662;BMP280;61956;52.540;13.382;2023-04-03T13:23:49;89371.56;;;6.23
73662;BMP280;61956;52.540;13.382;2023-04-03T13:26:29;88555.22;;;6.17
73662;BMP280;61956;52.540;13.382;2023-04-03T13:29:03;89811.03;;;6.24
73662;BMP280;61956;52.540;13.382;2023-04-03T13:31:36;91906.84;;;6.35
73662;BMP280;61956;52.540;13.382;2023-04-03T13:34:12;90329.47;;;6.29
73662;BMP280;61956;52.540;13.382;2023-04-03T13:36:55;89248.22;;;6.21
73662;BMP280;61956;52.540;13.382;2023-04-03T13:39:29;89703.94;;;6.24
73662;BMP280;61956;52.540;13.382;2023-04-03T13:42:15;88062.97;;;6.11
73662;BMP280;61956;52.540;13.382;2023-04-03T13:45:10;87334.47;;;6.05
73662;BMP280;61956;52.540;13.382;2023-04-03T13:47:53;87298.41;;;6.03
73662;BMP280;61956;52.540;13.382;2023-04-03T13:50:50;87822.16;;;6.06
73662;BMP280;61956;52.540;13.382;2023-04-03T13:53:23;87659.16;;;6.03
73662;BMP280;61956;52.540;13.382;2023-04-03T13:55:56;87691.75;;;6.02
73662;BMP280;61956;52.540;13.382;2023-04-03T13:58:36;88803.19;;;6.09
73662;BMP280;61956;52.540;13.382;2023-04-03T14:01:10;89866.56;;;6.15
73662;BMP280;61956;52.540;13.382;2023-04-03T14:03:52;90884.28;;;6.22
73662;BMP280;61956;52.540;13.382;2023-04-03T14:06:23;91515.31;;;6.27
73662;BMP280;61956;52.540;13.382;2023-04-03T14:08:54;90676.63;;;6.24
73662;BMP280;61956;52.540;13.382;2023-04-03T14:11:26;89853.97;;;6.17
73662;BMP280;61956;52.540;13.382;2023-04-03T14:14:02;90513.97;;;6.21
73662;BMP280;61956;52.540;13.382;2023-04-03T14:16:40;89549.09;;;6.16
73662;BMP280;61956;52.540;13.382;2023-04-03T14:19:19;89667.81;;;6.16
73662;BMP280;61956;52.540;13.382;2023-04-03T14:21:51;92101.44;;;6.31
73662;BMP280;61956;52.540;13.382;2023-04-03T14:24:23;88897.09;;;6.12
73662;BMP280;61956;52.540;13.382;2023-04-03T14:26:54;86409.34;;;5.95
73662;BMP280;61956;52.540;13.382;2023-04-03T14:29:27;86230.47;;;5.92
73662;BMP280;61956;52.540;13.382;2023-04-03T14:31:56;88402.59;;;6.03
73662;BMP280;61956;52.540;13.382;2023-04-03T14:34:25;94140.44;;;6.39
73662;BMP280;61956;52.540;13.382;2023-04-03T14:36:54;98105.91;;;6.66
73662;BMP280;61956;52.540;13.382;2023-04-03T14:39:23;99577.06;;;6.81
73662;BMP280;61956;52.540;13.382;2023-04-03T14:41:53;96494.72;;;6.68
73662;BMP280;61956;52.540;13.382;2023-04-03T14:44:22;92385.88;;;6.43
73662;BMP280;61956;52.540;13.382;2023-04-03T14:46:54;89266.38;;;6.23
73662;BMP280;61956;52.540;13.382;2023-04-03T14:49:26;86733.38;;;6.04
73662;BMP280;61956;52.540;13.382;2023-04-03T14:51:56;85505.03;;;5.93
73662;BMP280;61956;52.540;13.382;2023-04-03T14:54:26;82864.53;;;5.74
73662;BMP280;61956;52.540;13.382;2023-04-03T14:56:58;83937.16;;;5.77
73662;BMP280;61956;52.540;13.382;2023-04-03T14:59:29;85049.41;;;5.82
73662;BMP280;61956;52.540;13.382;2023-04-03T15:02:04;84067.59;;;5.74